Brookfield, Canada
Current Conditions -  °F | °C
As of 5:00 PM on Saturday 22 Nov 2014 (Local Time) from CYHZ Reporting Station
Broken Clouds Broken Clouds  
Wind Chill: 19°   Ceiling: 25000
Heat Index: 28°   Visibility: 15mi
Dew Point: 16°   Wind: 10mph
Humidity: 59%   Direction: 230°SW
Pressure: 30.01"   Gusts: NA
Location:  45.25°N, 63.28°W
Report Text: CYHZ 222100Z 23009KT 15SM FEW030 FEW160 BKN250 M02/M09 A3001 RMK SC1AC1CI5 AC TR SLP169
Loading
Personal Weather Stations






























Interactive Weather Map New forecast layout! Learn more

10-Day Weather Forecast

Advertisements
Track Severe Weather on mobile